createdAt,value
2022-10-04T00:02:28.819Z,14.63
2022-10-04T00:05:00.046Z,14.33
2022-10-04T00:07:32.190Z,13.70
2022-10-04T00:10:02.570Z,14.03
2022-10-04T00:12:34.146Z,14.90
2022-10-04T00:15:03.745Z,14.20
2022-10-04T00:17:32.405Z,14.83
2022-10-04T00:19:59.603Z,13.87
2022-10-04T00:22:28.182Z,14.40
2022-10-04T00:25:07.601Z,15.63
2022-10-04T00:27:38.362Z,15.03
2022-10-04T00:30:05.499Z,14.00
2022-10-04T00:32:41.882Z,14.50
2022-10-04T00:35:29.014Z,14.43
2022-10-04T00:38:08.749Z,15.00
2022-10-04T00:40:55.261Z,15.37
2022-10-04T00:43:43.503Z,14.70
2022-10-04T00:46:18.961Z,14.83
2022-10-04T00:48:52.115Z,14.60
2022-10-04T00:51:38.238Z,15.03
2022-10-04T00:54:09.725Z,15.03
2022-10-04T00:56:36.896Z,15.10
2022-10-04T00:59:04.173Z,16.47
2022-10-04T01:01:32.815Z,15.93
2022-10-04T01:04:02.396Z,16.07
2022-10-04T01:06:30.050Z,16.93
2022-10-04T01:09:02.027Z,18.57
2022-10-04T01:11:36.154Z,18.80
2022-10-04T01:14:19.521Z,19.87
2022-10-04T01:16:47.010Z,15.67
2022-10-04T01:19:24.402Z,15.23
2022-10-04T01:22:09.740Z,15.27
2022-10-04T01:24:37.975Z,13.43
2022-10-04T01:27:05.242Z,14.97
2022-10-04T01:29:32.869Z,15.37
2022-10-04T01:32:00.956Z,21.33
2022-10-04T01:34:29.238Z,17.70
2022-10-04T01:36:59.138Z,17.13
2022-10-04T01:39:27.418Z,16.37
2022-10-04T01:41:57.562Z,16.30
2022-10-04T01:44:44.889Z,16.57
2022-10-04T01:47:18.187Z,15.57
2022-10-04T01:49:46.233Z,16.43
2022-10-04T01:55:45.220Z,12.40
2022-10-04T01:58:18.058Z,13.67
2022-10-04T02:00:54.216Z,11.93
2022-10-04T02:03:24.941Z,12.47
2022-10-04T02:05:53.676Z,10.93
2022-10-04T02:08:24.601Z,13.10
2022-10-04T02:10:54.834Z,9.57
2022-10-04T02:13:22.616Z,10.47
2022-10-04T02:15:50.455Z,11.57
2022-10-04T02:18:20.630Z,11.67
2022-10-04T02:20:48.593Z,10.17
2022-10-04T02:23:17.701Z,8.97
2022-10-04T02:25:44.836Z,7.37
2022-10-04T02:28:13.897Z,9.70
2022-10-04T02:30:44.440Z,8.73
2022-10-04T02:33:11.816Z,8.07
2022-10-04T02:35:45.446Z,7.47
2022-10-04T02:38:30.277Z,5.63
2022-10-04T02:41:04.181Z,5.73
2022-10-04T02:43:36.572Z,5.57
2022-10-04T02:46:08.518Z,5.77
2022-10-04T02:48:41.366Z,5.60
2022-10-04T02:51:15.620Z,5.90
2022-10-04T02:53:45.876Z,5.80
2022-10-04T02:56:13.512Z,6.70
2022-10-04T02:58:41.680Z,8.30
2022-10-04T03:01:16.338Z,7.00
2022-10-04T03:03:45.876Z,8.93
2022-10-04T03:06:18.149Z,8.73
2022-10-04T03:08:53.578Z,8.97
2022-10-04T03:11:22.703Z,7.33
2022-10-04T03:13:51.365Z,7.63
2022-10-04T03:16:19.445Z,8.23
2022-10-04T03:18:47.536Z,9.90
2022-10-04T03:21:16.662Z,9.10
2022-10-04T03:23:43.974Z,10.00
2022-10-04T03:26:19.265Z,8.70
2022-10-04T03:28:46.506Z,8.73
2022-10-04T03:31:14.498Z,9.87
2022-10-04T03:33:43.491Z,10.37
2022-10-04T03:36:13.923Z,10.60
2022-10-04T03:38:41.116Z,9.07
2022-10-04T03:41:10.852Z,9.23
2022-10-04T03:43:41.541Z,10.03
2022-10-04T03:46:09.082Z,10.47
2022-10-04T03:48:38.758Z,10.00
2022-10-04T03:51:06.736Z,7.43
2022-10-04T03:53:37.613Z,6.83
2022-10-04T03:56:12.058Z,6.73
2022-10-04T03:58:39.280Z,5.60
2022-10-04T04:01:21.513Z,5.90
2022-10-04T04:03:57.465Z,6.37
2022-10-04T04:06:25.165Z,7.30
2022-10-04T04:08:57.264Z,5.83
2022-10-04T04:11:26.135Z,6.07
2022-10-04T04:13:53.213Z,5.83
2022-10-04T04:16:21.284Z,5.47
2022-10-04T04:18:49.585Z,5.00
2022-10-04T04:21:19.101Z,4.83
2022-10-04T04:23:55.612Z,3.73
2022-10-04T04:26:36.663Z,3.80
2022-10-04T04:29:18.475Z,3.90
2022-10-04T04:31:45.818Z,4.37
2022-10-04T04:34:33.091Z,4.17
2022-10-04T04:37:04.037Z,3.80
2022-10-04T04:39:34.918Z,4.37
2022-10-04T04:42:13.995Z,4.47
2022-10-04T04:44:47.425Z,5.90
2022-10-04T04:47:27.017Z,7.37
2022-10-04T04:49:54.358Z,6.90
2022-10-04T04:52:23.389Z,8.40
2022-10-04T04:54:50.634Z,9.97
2022-10-04T04:57:17.868Z,10.60
2022-10-04T04:59:46.552Z,10.37
2022-10-04T05:02:57.570Z,10.83
2022-10-04T05:05:27.094Z,10.87
2022-10-04T05:08:12.664Z,13.43
2022-10-04T05:10:42.148Z,12.03
2022-10-04T05:13:09.733Z,12.87
2022-10-04T05:15:37.988Z,9.53
2022-10-04T05:18:28.393Z,12.57
2022-10-04T05:20:56.965Z,10.37
2022-10-04T05:23:24.082Z,11.67
2022-10-04T05:25:51.368Z,10.90
2022-10-04T05:28:18.947Z,9.97
2022-10-04T05:30:49.993Z,10.53
2022-10-04T05:33:40.564Z,16.40
2022-10-04T05:36:09.586Z,12.43
2022-10-04T05:38:48.915Z,12.97
2022-10-04T05:41:27.335Z,19.73
2022-10-04T05:43:57.502Z,12.70
2022-10-04T05:46:26.557Z,14.87
2022-10-04T05:48:55.237Z,10.80
2022-10-04T05:51:24.375Z,9.17
2022-10-04T05:53:51.849Z,9.57
2022-10-04T05:56:31.556Z,11.57
2022-10-04T05:58:58.659Z,10.70
2022-10-04T06:01:39.279Z,12.27
2022-10-04T06:04:17.961Z,10.77
2022-10-04T06:06:50.434Z,10.63
2022-10-04T06:09:26.586Z,10.10
2022-10-04T06:12:06.052Z,9.53
2022-10-04T06:14:33.142Z,10.90
2022-10-04T06:17:19.361Z,8.93
2022-10-04T06:19:58.324Z,9.80
2022-10-04T06:22:28.631Z,10.00
2022-10-04T06:24:58.024Z,11.37
2022-10-04T06:27:31.193Z,12.60
2022-10-04T06:30:03.526Z,12.03
2022-10-04T06:32:42.532Z,8.53
2022-10-04T06:35:25.012Z,10.27
2022-10-04T06:38:10.786Z,9.30
2022-10-04T06:40:47.091Z,8.87
2022-10-04T06:43:30.529Z,9.00
2022-10-04T06:46:10.171Z,9.40
2022-10-04T06:48:52.185Z,8.80
2022-10-04T06:51:27.270Z,9.10
2022-10-04T06:53:54.335Z,9.13
2022-10-04T06:56:48.311Z,9.20
2022-10-04T06:59:36.243Z,9.60
2022-10-04T07:02:15.475Z,9.23
2022-10-04T07:05:09.607Z,9.07
2022-10-04T07:07:42.013Z,11.00
2022-10-04T07:10:09.125Z,11.53
2022-10-04T07:12:39.833Z,12.30
2022-10-04T07:15:10.663Z,10.30
2022-10-04T07:17:40.185Z,10.23
2022-10-04T07:20:08.596Z,8.83
2022-10-04T07:22:38.654Z,8.27
2022-10-04T07:25:05.922Z,7.10
2022-10-04T07:28:11.004Z,9.57
2022-10-04T07:30:40.803Z,10.67
2022-10-04T07:33:09.649Z,9.60
2022-10-04T07:35:43.991Z,8.60
2022-10-04T07:38:11.065Z,8.63
2022-10-04T07:40:40.253Z,9.23
2022-10-04T07:43:08.490Z,12.67
2022-10-04T07:45:39.808Z,12.03
2022-10-04T07:48:13.057Z,15.83
2022-10-04T07:50:44.482Z,18.10
2022-10-04T07:53:17.663Z,17.23
2022-10-04T07:55:50.419Z,17.07
2022-10-04T07:58:23.722Z,15.93
2022-10-04T08:00:57.747Z,14.17
2022-10-04T08:03:27.962Z,16.50
2022-10-04T08:06:10.428Z,13.33
2022-10-04T08:08:51.211Z,12.27
2022-10-04T08:11:27.605Z,14.27
2022-10-04T08:14:06.948Z,14.90
2022-10-04T08:16:38.942Z,13.37
2022-10-04T08:19:06.550Z,12.50
2022-10-04T08:21:43.967Z,14.37
2022-10-04T08:24:32.211Z,13.67
2022-10-04T08:27:18.845Z,11.63
2022-10-04T08:29:58.132Z,11.97
2022-10-04T08:32:54.792Z,10.77
2022-10-04T08:35:21.978Z,10.20
2022-10-04T08:37:55.123Z,10.80
2022-10-04T08:40:43.249Z,10.40
2022-10-04T08:43:22.503Z,8.37
2022-10-04T08:45:58.502Z,9.10
2022-10-04T08:48:28.796Z,9.87
2022-10-04T08:51:14.817Z,8.50
2022-10-04T08:53:42.252Z,7.57
2022-10-04T08:56:18.662Z,7.70
2022-10-04T08:58:45.728Z,6.70
2022-10-04T09:01:15.875Z,7.40
2022-10-04T09:03:42.976Z,7.03
2022-10-04T09:06:15.716Z,6.55
2022-10-04T09:09:01.696Z,6.35
2022-10-04T09:11:47.654Z,6.40
2022-10-04T09:14:23.991Z,6.15
2022-10-04T09:16:56.846Z,6.30
2022-10-04T09:19:33.576Z,5.93
2022-10-04T09:22:11.548Z,6.05
2022-10-04T09:24:38.642Z,5.88
2022-10-04T09:27:49.969Z,6.15
2022-10-04T09:30:20.747Z,5.30
2022-10-04T09:32:59.507Z,6.25
2022-10-04T09:35:42.750Z,5.85
2022-10-04T09:38:29.230Z,5.35
2022-10-04T09:41:02.027Z,5.30
2022-10-04T09:43:47.910Z,5.03
2022-10-04T09:46:29.302Z,4.60
2022-10-04T09:49:13.621Z,5.00
2022-10-04T09:52:01.869Z,4.95
2022-10-04T09:54:45.722Z,4.93
2022-10-04T09:57:22.753Z,4.60
2022-10-04T10:00:06.002Z,4.80
2022-10-04T10:02:33.076Z,5.00
2022-10-04T10:05:18.710Z,4.35
2022-10-04T10:07:51.529Z,4.70
2022-10-04T10:10:37.424Z,4.25
2022-10-04T10:13:45.578Z,4.40
2022-10-04T10:16:31.281Z,4.00
2022-10-04T10:18:59.219Z,3.83
2022-10-04T10:21:38.025Z,4.10
2022-10-04T10:24:10.165Z,4.65
2022-10-04T10:26:52.112Z,3.97
2022-10-04T10:29:31.567Z,3.88
2022-10-04T10:32:04.594Z,3.92
2022-10-04T10:34:43.837Z,4.10
2022-10-04T10:37:15.961Z,4.07
2022-10-04T10:39:56.547Z,4.30
2022-10-04T10:42:32.661Z,4.00
2022-10-04T10:44:59.785Z,3.97
2022-10-04T10:47:53.052Z,3.50
2022-10-04T10:50:58.409Z,3.50
2022-10-04T10:53:48.200Z,3.17
2022-10-04T10:56:30.231Z,2.90
2022-10-04T10:58:57.504Z,3.53
2022-10-04T11:01:27.608Z,2.90
2022-10-04T11:04:14.306Z,3.38
2022-10-04T11:07:00.733Z,3.25
2022-10-04T11:09:27.815Z,3.00
2022-10-04T11:12:10.405Z,2.83
2022-10-04T11:14:50.720Z,2.88
2022-10-04T11:17:34.644Z,3.17
2022-10-04T11:20:05.433Z,3.50
2022-10-04T11:22:50.983Z,3.15
2022-10-04T11:25:36.864Z,2.58
2022-10-04T11:28:22.004Z,2.33
2022-10-04T11:31:08.058Z,2.70
2022-10-04T11:33:55.771Z,2.03
2022-10-04T11:36:22.938Z,2.40
2022-10-04T11:39:08.472Z,2.30
2022-10-04T11:41:56.790Z,2.10
2022-10-04T11:44:26.564Z,2.38
2022-10-04T11:47:12.440Z,2.75
2022-10-04T11:49:56.468Z,2.97
2022-10-04T11:53:00.472Z,2.58
2022-10-04T11:55:31.236Z,2.60
2022-10-04T11:58:02.929Z,2.85
2022-10-04T12:00:49.584Z,3.00
2022-10-04T12:03:35.479Z,2.33
2022-10-04T12:06:22.632Z,2.35
2022-10-04T12:09:06.019Z,1.80
2022-10-04T12:11:57.728Z,1.90
2022-10-04T12:14:40.452Z,1.90
2022-10-04T12:17:20.593Z,2.05
2022-10-04T12:19:47.990Z,2.00
2022-10-04T12:22:24.138Z,2.00
2022-10-04T12:25:07.234Z,1.77
2022-10-04T12:27:43.437Z,2.00
2022-10-04T12:30:30.843Z,1.90
2022-10-04T12:33:21.901Z,1.90
2022-10-04T12:36:06.050Z,1.50
2022-10-04T12:38:33.143Z,1.52
2022-10-04T12:41:00.205Z,1.90
2022-10-04T12:43:28.121Z,1.90
2022-10-04T12:46:13.385Z,1.80
2022-10-04T12:49:01.151Z,2.10
2022-10-04T12:51:54.743Z,1.50
2022-10-04T12:54:21.784Z,2.35
2022-10-04T12:57:01.947Z,1.90
2022-10-04T12:59:39.421Z,1.50
2022-10-04T13:02:15.801Z,1.55
2022-10-04T13:04:47.158Z,2.25
2022-10-04T13:07:23.417Z,1.73
2022-10-04T13:10:11.998Z,1.40
2022-10-04T13:12:56.044Z,1.70
2022-10-04T13:18:49.241Z,1.40
2022-10-04T13:21:24.870Z,1.75
2022-10-04T13:23:58.156Z,1.70
2022-10-04T13:26:36.905Z,1.67
2022-10-04T13:29:10.476Z,1.60
2022-10-04T13:31:53.351Z,1.95
2022-10-04T13:34:39.040Z,1.67
2022-10-04T13:37:21.873Z,1.60
2022-10-04T13:39:59.898Z,1.35
2022-10-04T13:42:45.357Z,1.38
2022-10-04T13:45:17.564Z,1.85
2022-10-04T13:48:03.376Z,1.55
2022-10-04T13:50:42.036Z,1.70
2022-10-04T13:53:49.560Z,1.60
2022-10-04T13:56:37.387Z,1.55
2022-10-04T13:59:07.475Z,1.77
2022-10-04T14:01:44.887Z,1.83
2022-10-04T14:04:27.414Z,1.70
2022-10-04T14:07:09.621Z,1.60
2022-10-04T14:09:42.549Z,1.38
2022-10-04T14:12:21.332Z,1.42
2022-10-04T14:14:54.475Z,1.83
2022-10-04T14:17:42.036Z,1.55
2022-10-04T14:20:28.505Z,1.40
2022-10-04T14:23:16.169Z,1.77
2022-10-04T14:25:55.292Z,1.83
2022-10-04T14:28:49.106Z,1.30
2022-10-04T14:31:22.246Z,1.88
2022-10-04T14:34:22.058Z,1.33
2022-10-04T14:36:52.389Z,1.80
2022-10-04T14:39:42.273Z,2.45
2022-10-04T14:42:22.051Z,1.92
2022-10-04T14:44:49.151Z,3.40
2022-10-04T14:47:16.197Z,5.18
2022-10-04T14:49:43.260Z,4.82
2022-10-04T14:52:32.411Z,2.45
2022-10-04T14:55:11.022Z,3.95
2022-10-04T14:57:56.375Z,5.55
2022-10-04T15:00:25.273Z,6.53
2022-10-04T15:02:52.393Z,5.07
2022-10-04T15:05:38.002Z,2.00
2022-10-04T15:08:26.247Z,1.67
2022-10-04T15:10:55.485Z,1.73
2022-10-04T15:13:25.284Z,1.60
2022-10-04T15:15:55.460Z,1.60
2022-10-04T15:18:28.375Z,1.65
2022-10-04T15:21:06.804Z,1.63
2022-10-04T15:23:35.022Z,1.80
2022-10-04T15:26:11.062Z,1.77
2022-10-04T15:28:50.130Z,1.70
2022-10-04T15:31:17.279Z,1.70
2022-10-04T15:33:57.431Z,2.15
2022-10-04T15:36:43.470Z,1.85
2022-10-04T15:39:29.526Z,1.70
2022-10-04T15:42:01.834Z,1.83
2022-10-04T15:44:43.973Z,2.00
2022-10-04T15:47:17.098Z,1.80
2022-10-04T15:50:03.988Z,2.00
2022-10-04T15:52:43.134Z,2.13
2022-10-04T15:55:10.176Z,1.60
2022-10-04T15:58:02.789Z,2.73
2022-10-04T16:00:41.161Z,2.10
2022-10-04T16:03:27.205Z,2.00
2022-10-04T16:06:06.518Z,2.17
2022-10-04T16:08:48.917Z,2.30
2022-10-04T16:11:39.275Z,2.30
2022-10-04T16:14:06.322Z,1.70
2022-10-04T16:16:33.414Z,2.10
2022-10-04T16:19:18.950Z,2.10
2022-10-04T16:21:48.858Z,2.17
2022-10-04T16:24:18.745Z,2.10
2022-10-04T16:26:47.523Z,2.73
2022-10-04T16:29:33.524Z,2.73
2022-10-04T16:32:06.358Z,2.10
2022-10-04T16:34:51.483Z,2.13
2022-10-04T16:37:21.534Z,2.20
2022-10-04T16:40:03.284Z,2.23
2022-10-04T16:42:34.653Z,2.37
2022-10-04T16:45:21.976Z,2.00
2022-10-04T16:47:50.602Z,2.40
2022-10-04T16:50:37.755Z,2.90
2022-10-04T16:53:24.478Z,3.20
2022-10-04T16:55:57.958Z,2.47
2022-10-04T16:58:27.869Z,2.77
2022-10-04T17:01:13.446Z,2.80
2022-10-04T17:03:49.041Z,2.97
2022-10-04T17:06:16.582Z,2.87
2022-10-04T17:08:49.856Z,2.93
2022-10-04T17:11:29.096Z,2.23
2022-10-04T17:14:01.692Z,2.80
2022-10-04T17:16:37.872Z,3.23
2022-10-04T17:19:14.006Z,3.10
2022-10-04T17:21:46.144Z,3.47
2022-10-04T17:24:22.148Z,3.33
2022-10-04T17:26:55.874Z,3.77
2022-10-04T17:29:25.975Z,3.33
2022-10-04T17:31:57.755Z,3.37
2022-10-04T17:34:31.008Z,3.20
2022-10-04T17:37:11.856Z,2.93
2022-10-04T17:39:45.172Z,3.50
2022-10-04T17:42:31.040Z,2.97
2022-10-04T17:45:07.921Z,4.00
2022-10-04T17:47:55.757Z,5.30
2022-10-04T17:50:48.861Z,4.70
2022-10-04T17:53:38.950Z,4.40
2022-10-04T17:56:07.704Z,4.30
2022-10-04T17:58:43.834Z,3.83
2022-10-04T18:01:31.330Z,3.73
2022-10-04T18:04:19.284Z,3.70
2022-10-04T18:06:52.633Z,3.73
2022-10-04T18:09:19.731Z,4.03
2022-10-04T18:11:49.493Z,4.53
2022-10-04T18:14:31.634Z,4.63
2022-10-04T18:17:01.169Z,4.20
2022-10-04T18:19:36.093Z,4.50
2022-10-04T18:22:10.197Z,4.83
2022-10-04T18:24:37.288Z,5.60
2022-10-04T18:27:18.383Z,6.97
2022-10-04T18:30:00.523Z,9.07
2022-10-04T18:32:27.662Z,8.07
2022-10-04T18:34:55.537Z,8.33
2022-10-04T18:37:32.838Z,7.40
2022-10-04T18:40:17.943Z,8.00
2022-10-04T18:42:52.237Z,7.80
2022-10-04T18:45:20.451Z,7.23
2022-10-04T18:47:50.727Z,7.50
2022-10-04T18:50:39.228Z,7.00
2022-10-04T18:53:07.195Z,6.00
2022-10-04T18:55:39.788Z,5.77
2022-10-04T18:58:40.094Z,6.67
2022-10-04T19:01:46.196Z,6.47
2022-10-04T19:04:20.551Z,7.23
2022-10-04T19:06:48.347Z,6.60
2022-10-04T19:09:23.459Z,6.77
2022-10-04T19:11:54.843Z,6.77
2022-10-04T19:14:40.711Z,6.83
2022-10-04T19:17:14.947Z,7.70
2022-10-04T19:19:42.027Z,7.10
2022-10-04T19:22:21.386Z,7.17
2022-10-04T19:24:57.905Z,7.73
2022-10-04T19:27:36.463Z,8.17
2022-10-04T19:30:03.539Z,7.47
2022-10-04T19:32:43.233Z,8.23
2022-10-04T19:35:35.034Z,8.47
2022-10-04T19:38:02.152Z,9.13
2022-10-04T19:40:51.433Z,9.30
2022-10-04T19:43:21.852Z,10.07
2022-10-04T19:46:07.774Z,9.63
2022-10-04T19:48:40.270Z,10.10
2022-10-04T19:51:11.347Z,10.00
2022-10-04T19:53:42.953Z,10.07
2022-10-04T19:56:16.883Z,9.97
2022-10-04T19:58:47.718Z,11.03
2022-10-04T20:01:16.624Z,11.90
2022-10-04T20:03:44.235Z,11.67
2022-10-04T20:06:20.108Z,11.93
2022-10-04T20:09:02.621Z,11.73
2022-10-04T20:11:39.191Z,11.10
2022-10-04T20:14:09.240Z,10.73
2022-10-04T20:16:49.299Z,11.30
2022-10-04T20:19:16.798Z,10.73
2022-10-04T20:21:43.921Z,11.07
2022-10-04T20:24:18.308Z,10.30
2022-10-04T20:26:54.259Z,10.73
2022-10-04T20:29:37.099Z,10.53
2022-10-04T20:32:05.432Z,11.47
2022-10-04T20:34:35.616Z,12.77
2022-10-04T20:37:03.651Z,12.80
2022-10-04T20:39:56.697Z,12.60
2022-10-04T20:42:29.851Z,12.87
2022-10-04T20:45:01.713Z,12.60
2022-10-04T20:47:33.957Z,12.43
2022-10-04T20:50:01.885Z,12.57
2022-10-04T20:52:33.251Z,13.50
2022-10-04T20:55:06.457Z,15.60
2022-10-04T20:57:37.288Z,17.00
2022-10-04T21:00:18.174Z,17.57
2022-10-04T21:02:45.272Z,18.30
2022-10-04T21:05:13.210Z,17.60
2022-10-04T21:07:40.372Z,17.47
2022-10-04T21:10:15.864Z,17.30
2022-10-04T21:12:42.950Z,16.17
2022-10-04T21:15:30.280Z,15.90
2022-10-04T21:18:07.710Z,14.77
2022-10-04T21:20:52.874Z,14.83
2022-10-04T21:23:23.410Z,14.37
2022-10-04T21:25:50.801Z,12.90
2022-10-04T21:28:25.310Z,13.40
2022-10-04T21:30:52.467Z,15.17
2022-10-04T21:33:19.564Z,14.73
2022-10-04T21:35:49.890Z,16.13
2022-10-04T21:38:16.950Z,14.00
2022-10-04T21:40:44.084Z,14.77
2022-10-04T21:43:11.217Z,15.87
2022-10-04T21:45:38.347Z,16.23
2022-10-04T21:48:05.413Z,15.47
2022-10-04T21:50:32.526Z,15.70
2022-10-04T21:52:59.825Z,14.40
2022-10-04T21:55:26.921Z,14.23
2022-10-04T21:57:54.000Z,14.70
2022-10-04T22:00:21.255Z,14.00
2022-10-04T22:02:48.365Z,14.97
2022-10-04T22:05:15.489Z,14.63
2022-10-04T22:07:42.644Z,14.33
2022-10-04T22:10:09.766Z,14.40
2022-10-04T22:12:36.860Z,13.97
2022-10-04T22:15:04.088Z,14.03
2022-10-04T22:17:31.181Z,13.73
2022-10-04T22:19:58.278Z,13.77
2022-10-04T22:22:25.363Z,13.77
2022-10-04T22:24:52.490Z,13.93
2022-10-04T22:27:20.472Z,14.03
2022-10-04T22:29:47.622Z,13.13
2022-10-04T22:32:24.988Z,12.80
2022-10-04T22:34:53.142Z,13.47
2022-10-04T22:37:23.998Z,12.87
2022-10-04T22:39:52.234Z,13.73
2022-10-04T22:42:19.848Z,14.43
2022-10-04T22:44:47.003Z,14.03
2022-10-04T22:47:14.926Z,13.73
2022-10-04T22:49:45.990Z,12.97
2022-10-04T22:52:17.479Z,13.17
2022-10-04T22:54:45.814Z,14.80
2022-10-04T22:57:14.293Z,13.53
2022-10-04T22:59:48.235Z,14.73
2022-10-04T23:02:15.757Z,13.73
2022-10-04T23:04:53.280Z,13.50
2022-10-04T23:07:20.675Z,14.43
2022-10-04T23:09:48.025Z,13.53
2022-10-04T23:12:15.190Z,13.50
2022-10-04T23:14:42.441Z,13.27
2022-10-04T23:17:15.538Z,13.53
2022-10-04T23:19:42.585Z,12.97
2022-10-04T23:22:16.646Z,13.60
2022-10-04T23:24:43.792Z,13.23
2022-10-04T23:27:15.058Z,13.17
2022-10-04T23:29:42.577Z,14.13
2022-10-04T23:32:13.597Z,14.37
2022-10-04T23:34:43.113Z,13.50
2022-10-04T23:37:31.513Z,14.00
2022-10-04T23:39:58.928Z,13.67
2022-10-04T23:42:31.891Z,13.03
2022-10-04T23:45:00.140Z,13.10
2022-10-04T23:47:35.019Z,12.87
2022-10-04T23:50:02.585Z,13.57
2022-10-04T23:52:35.728Z,13.50
2022-10-04T23:55:03.319Z,13.63
2022-10-04T23:57:31.142Z,13.93
